Language: 


Des rapports , des résumés tant et plus, au choix de chacun....


Données statistiques de la station
Quotidien Rapport Mars 21, 2017 Unités:  Métrique    Anglais   les deux
« Précédent Jour
Suivant Jour »
Quotidien Hebdomadaire Mensuel Annuel Actuel
  Haut: Bas: Moyen:
Température: 12.2 °C 0.0 °C 8.6 °C
Pt de rosée: 9.8 °C -1.4 °C 3.6 °C
Humidité: 98 % 0 % 73 %
Vitesse du vent: 28.0 km/h 0.0 km/h 12 km/h
Rafales: 32.8 km/h - -
Vent:- - WSW
Pression: 1013.1 hPa 0.0 hPa -
Précipitation: 1.0 mm    
Historical Graphs
 
 
Données statistiques pour Mars 21, 2017
Heure Température Point de rosée Pression Vent Vitesse du vent Refales Humidité Pluie (taux horaire)
00:00 10.1 °C 9.8 °C 1006.0 hPa WSW 16.9 km/h 24.8 km/h 98 % 0.0 mm
00:05 10.1 °C 9.8 °C 1006.0 hPa West 23.3 km/h 25.9 km/h 98 % 0.0 mm
00:10 10.1 °C 9.7 °C 1006.0 hPa WSW 12.2 km/h 25.9 km/h 97 % 0.0 mm
00:15 10.1 °C 9.7 °C 1006.0 hPa West 15.8 km/h 23.8 km/h 97 % 0.0 mm
00:20 10.0 °C 9.6 °C 1006.0 hPa WSW 16.9 km/h 20.6 km/h 97 % 0.0 mm
00:25 10.0 °C 9.6 °C 1006.0 hPa WSW 20.6 km/h 23.3 km/h 97 % 0.0 mm
00:30 10.0 °C 9.6 °C 1006.0 hPa WSW 21.2 km/h 23.8 km/h 97 % 0.0 mm
00:35 9.9 °C 9.4 °C 1006.0 hPa WSW 17.7 km/h 25.9 km/h 97 % 0.0 mm
00:40 10.0 °C 9.6 °C 1006.0 hPa WSW 19.8 km/h 28.5 km/h 97 % 0.0 mm
00:45 10.0 °C 9.6 °C 1006.0 hPa WSW 20.1 km/h 28.5 km/h 97 % 0.0 mm
00:50 10.0 °C 9.4 °C 1006.0 hPa WSW 22.7 km/h 24.8 km/h 96 % 0.0 mm
00:55 10.0 °C 9.4 °C 1007.0 hPa WSW 13.7 km/h 24.8 km/h 96 % 0.0 mm
01:00 10.0 °C 9.4 °C 1007.0 hPa WSW 21.2 km/h 24.5 km/h 96 % 0.0 mm
01:05 10.0 °C 9.4 °C 1007.0 hPa WSW 18.3 km/h 23.3 km/h 96 % 0.0 mm
01:10 9.9 °C 9.3 °C 1007.0 hPa WSW 16.3 km/h 18.3 km/h 96 % 0.0 mm
01:15 9.8 °C 9.2 °C 1007.0 hPa WSW 13.0 km/h 18.3 km/h 96 % 0.0 mm
01:20 9.8 °C 9.2 °C 1007.0 hPa WSW 12.6 km/h 17.7 km/h 96 % 0.0 mm
01:25 9.7 °C 9.1 °C 1007.0 hPa WSW 13.7 km/h 17.7 km/h 96 % 0.0 mm
01:30 9.6 °C 9.0 °C 1007.0 hPa WSW 13.0 km/h 17.7 km/h 96 % 0.0 mm
01:35 9.6 °C 9.0 °C 1007.0 hPa WSW 12.2 km/h 16.9 km/h 96 % 0.0 mm
01:40 9.5 °C 8.9 °C 1006.0 hPa WSW 10.1 km/h 16.6 km/h 96 % 0.0 mm
01:45 9.4 °C 8.8 °C 1006.0 hPa WSW 9.7 km/h 14.0 km/h 96 % 0.0 mm
01:50 9.3 °C 8.7 °C 1006.0 hPa WSW 11.9 km/h 14.0 km/h 96 % 0.0 mm
01:55 9.2 °C 8.6 °C 1007.0 hPa WSW 12.2 km/h 16.3 km/h 96 % 0.0 mm
02:02 0.0 °C 8.6 °C 0.0 hPa WSW 8.7 km/h 15.8 km/h 0 % 0.0 mm
02:07 9.1 °C 8.7 °C 1007.0 hPa WSW 16.3 km/h 16.3 km/h 97 % 0.0 mm
02:12 9.1 °C 8.7 °C 1006.0 hPa WSW 13.7 km/h 16.3 km/h 97 % 0.0 mm
02:17 9.2 °C 8.8 °C 1006.0 hPa WSW 10.1 km/h 14.8 km/h 97 % 0.0 mm
02:22 9.1 °C 8.7 °C 1006.0 hPa WSW 12.2 km/h 13.7 km/h 97 % 0.0 mm
02:27 9.2 °C 8.9 °C 1007.0 hPa WSW 16.9 km/h 16.9 km/h 98 % 0.0 mm
02:32 9.1 °C 8.8 °C 1007.0 hPa WSW 13.7 km/h 16.9 km/h 98 % 0.0 mm
02:37 9.0 °C 8.6 °C 1007.0 hPa WSW 9.7 km/h 15.8 km/h 97 % 0.0 mm
02:42 8.9 °C 8.4 °C 1007.0 hPa WSW 11.9 km/h 13.0 km/h 97 % 0.0 mm
02:47 8.8 °C 8.4 °C 1007.0 hPa WSW 13.7 km/h 14.0 km/h 97 % 0.0 mm
02:52 8.8 °C 8.4 °C 1007.0 hPa WSW 14.0 km/h 14.0 km/h 97 % 0.0 mm
02:57 8.7 °C 8.4 °C 1006.0 hPa WSW 10.1 km/h 14.0 km/h 98 % 0.0 mm
03:02 8.7 °C 8.4 °C 1006.0 hPa SW 12.6 km/h 16.6 km/h 98 % 0.0 mm
03:07 0.0 °C 8.4 °C 1006.0 hPa WSW 13.0 km/h 16.6 km/h 0 % 0.0 mm
03:12 8.8 °C 8.5 °C 1007.0 hPa WSW 8.7 km/h 14.3 km/h 98 % 0.0 mm
03:17 8.8 °C 8.5 °C 1007.0 hPa WSW 14.3 km/h 14.3 km/h 98 % 0.0 mm
03:22 8.8 °C 8.5 °C 1007.0 hPa WSW 13.7 km/h 17.7 km/h 98 % 0.0 mm
03:27 8.8 °C 8.5 °C 1006.0 hPa WSW 13.0 km/h 17.7 km/h 98 % 0.0 mm
03:32 8.7 °C 8.4 °C 1006.0 hPa WSW 12.6 km/h 14.0 km/h 98 % 0.0 mm
03:37 8.6 °C 8.3 °C 1006.0 hPa WSW 12.6 km/h 14.0 km/h 98 % 0.0 mm
03:42 8.6 °C 8.3 °C 1007.0 hPa WSW 13.0 km/h 15.8 km/h 98 % 0.0 mm
03:47 8.5 °C 8.2 °C 1007.0 hPa WSW 11.9 km/h 15.8 km/h 98 % 0.0 mm
03:52 8.6 °C 8.3 °C 1007.0 hPa WSW 10.1 km/h 13.7 km/h 98 % 0.0 mm
03:57 8.6 °C 8.3 °C 1007.0 hPa WSW 13.7 km/h 17.2 km/h 98 % 0.0 mm
04:02 8.7 °C 8.4 °C 1007.0 hPa WSW 19.5 km/h 19.5 km/h 98 % 0.0 mm
04:07 8.7 °C 8.4 °C 1007.0 hPa WSW 15.4 km/h 20.9 km/h 98 % 0.3 mm
04:12 8.7 °C 8.4 °C 1006.0 hPa WSW 12.2 km/h 20.9 km/h 98 % 0.3 mm
04:17 8.7 °C 8.4 °C 1006.0 hPa SSW 8.7 km/h 15.4 km/h 98 % 0.3 mm
04:22 8.7 °C 8.4 °C 1007.0 hPa WSW 10.5 km/h 13.7 km/h 98 % 0.3 mm
04:27 8.6 °C 8.3 °C 1007.0 hPa WSW 11.9 km/h 13.7 km/h 98 % 0.3 mm
04:32 8.5 °C 8.2 °C 1007.0 hPa WSW 9.3 km/h 13.0 km/h 98 % 0.3 mm
04:37 8.5 °C 8.2 °C 1007.0 hPa WSW 11.9 km/h 14.0 km/h 98 % 0.3 mm
04:42 8.5 °C 8.2 °C 1007.0 hPa WSW 10.1 km/h 14.0 km/h 98 % 0.3 mm
04:47 8.4 °C 8.1 °C 1007.0 hPa WSW 10.5 km/h 14.0 km/h 98 % 0.3 mm
04:52 8.4 °C 8.1 °C 1007.0 hPa WSW 9.3 km/h 14.0 km/h 98 % 0.3 mm
04:57 8.3 °C 8.1 °C 1007.0 hPa WSW 11.9 km/h 13.7 km/h 98 % 0.3 mm
05:02 8.2 °C 7.9 °C 1007.0 hPa WSW 12.2 km/h 13.0 km/h 98 % 0.3 mm
05:07 8.2 °C 7.9 °C 1007.0 hPa WSW 14.0 km/h 14.0 km/h 98 % 0.0 mm
05:12 8.1 °C 7.8 °C 1007.0 hPa WSW 11.9 km/h 14.0 km/h 98 % 0.0 mm
05:17 8.1 °C 7.8 °C 1007.0 hPa WSW 11.9 km/h 16.3 km/h 98 % 0.0 mm
05:22 8.1 °C 7.8 °C 1007.0 hPa WSW 10.5 km/h 16.3 km/h 98 % 0.0 mm
05:27 8.1 °C 7.7 °C 1007.0 hPa WSW 10.5 km/h 15.1 km/h 98 % 0.0 mm
05:32 8.1 °C 7.7 °C 1007.0 hPa WSW 10.1 km/h 15.1 km/h 98 % 0.0 mm
05:37 8.1 °C 7.7 °C 1007.0 hPa WSW 9.3 km/h 13.0 km/h 98 % 0.0 mm
05:42 8.1 °C 7.7 °C 1007.0 hPa WSW 10.1 km/h 12.2 km/h 98 % 0.0 mm
05:47 8.1 °C 7.7 °C 1007.0 hPa WSW 10.8 km/h 13.0 km/h 98 % 0.0 mm
05:52 8.1 °C 7.7 °C 1008.0 hPa WSW 10.5 km/h 13.0 km/h 98 % 0.0 mm
05:57 8.1 °C 7.8 °C 1008.0 hPa West 9.0 km/h 12.6 km/h 98 % 0.0 mm
06:02 8.1 °C 7.8 °C 1008.0 hPa WSW 9.0 km/h 14.0 km/h 98 % 0.0 mm
06:07 8.1 °C 7.8 °C 1008.0 hPa WSW 16.6 km/h 17.7 km/h 98 % 0.0 mm
06:12 8.1 °C 7.8 °C 1007.0 hPa WSW 11.9 km/h 17.7 km/h 98 % 0.0 mm
06:17 8.1 °C 7.8 °C 1007.0 hPa WSW 11.9 km/h 16.6 km/h 98 % 0.0 mm
06:22 8.1 °C 7.8 °C 1007.0 hPa WSW 12.6 km/h 15.4 km/h 98 % 0.0 mm
06:27 8.1 °C 7.8 °C 1007.0 hPa WSW 14.0 km/h 14.0 km/h 98 % 0.0 mm
06:32 8.1 °C 7.8 °C 1007.0 hPa WSW 11.9 km/h 14.0 km/h 98 % 0.0 mm
06:37 8.1 °C 7.7 °C 1007.0 hPa WSW 10.8 km/h 13.0 km/h 98 % 0.0 mm
06:42 8.1 °C 7.7 °C 1007.0 hPa WSW 8.7 km/h 13.0 km/h 98 % 0.0 mm
06:47 8.1 °C 7.7 °C 1007.0 hPa West 9.3 km/h 13.0 km/h 98 % 0.0 mm
06:52 7.9 °C 7.7 °C 1007.0 hPa West 9.0 km/h 12.6 km/h 98 % 0.0 mm
06:58 7.9 °C 7.7 °C 1007.0 hPa WSW 10.1 km/h 13.7 km/h 98 % 0.0 mm
07:03 7.9 °C 7.7 °C 1007.0 hPa WSW 6.9 km/h 13.7 km/h 98 % 0.0 mm
07:08 7.9 °C 7.7 °C 1007.0 hPa WSW 8.7 km/h 12.6 km/h 98 % 0.0 mm
07:13 7.8 °C 7.6 °C 1007.0 hPa WSW 6.4 km/h 10.5 km/h 98 % 0.0 mm
07:18 7.9 °C 7.7 °C 1007.0 hPa WSW 9.7 km/h 13.7 km/h 98 % 0.0 mm
07:23 7.9 °C 7.7 °C 1007.0 hPa WSW 26.7 km/h 26.7 km/h 98 % 0.0 mm
07:28 7.7 °C 7.4 °C 1007.0 hPa WSW 10.1 km/h 29.9 km/h 98 % 0.8 mm
07:33 7.8 °C 7.4 °C 1007.0 hPa West 20.1 km/h 29.9 km/h 97 % 0.8 mm
07:38 7.8 °C 7.4 °C 1008.0 hPa West 20.9 km/h 20.9 km/h 97 % 0.8 mm
07:43 7.9 °C 7.5 °C 1008.0 hPa West 16.3 km/h 21.2 km/h 97 % 0.8 mm
07:48 7.9 °C 7.5 °C 1008.0 hPa WNW 13.7 km/h 21.2 km/h 97 % 0.8 mm
07:53 7.9 °C 7.5 °C 1008.0 hPa West 5.0 km/h 20.6 km/h 97 % 0.8 mm
07:58 7.9 °C 7.3 °C 1008.0 hPa SSW 8.7 km/h 17.7 km/h 96 % 0.8 mm
08:03 7.9 °C 7.3 °C 1008.0 hPa West 12.2 km/h 19.5 km/h 96 % 0.8 mm
08:08 7.8 °C 7.1 °C 1009.0 hPa NNW 10.5 km/h 19.5 km/h 95 % 0.8 mm
08:13 7.8 °C 7.1 °C 1009.0 hPa West 8.7 km/h 19.8 km/h 95 % 0.8 mm
08:18 7.8 °C 6.8 °C 1009.0 hPa West 11.9 km/h 21.2 km/h 93 % 0.8 mm
08:23 7.8 °C 6.6 °C 1008.0 hPa West 16.3 km/h 21.2 km/h 92 % 0.8 mm
08:28 7.8 °C 6.4 °C 1008.0 hPa NE 13.0 km/h 17.7 km/h 91 % 0.0 mm
08:33 7.8 °C 6.3 °C 1008.0 hPa NW 13.7 km/h 17.7 km/h 90 % 0.0 mm
08:38 8.1 °C 6.2 °C 1009.0 hPa WSW 12.2 km/h 17.7 km/h 88 % 0.0 mm
08:43 8.1 °C 6.1 °C 1009.0 hPa West 11.9 km/h 19.8 km/h 87 % 0.0 mm
08:48 8.1 °C 5.9 °C 1009.0 hPa WNW 4.7 km/h 19.8 km/h 86 % 0.3 mm
08:53 8.3 °C 6.1 °C 1009.0 hPa WNW 9.3 km/h 17.7 km/h 86 % 0.3 mm
08:58 8.2 °C 5.8 °C 1009.0 hPa WSW 8.7 km/h 20.1 km/h 85 % 0.3 mm
09:03 8.3 °C 5.6 °C 1009.0 hPa WNW 17.2 km/h 21.2 km/h 83 % 0.3 mm
09:08 8.6 °C 5.6 °C 1009.0 hPa West 6.4 km/h 23.8 km/h 81 % 0.3 mm
09:13 8.7 °C 5.4 °C 1009.0 hPa ENE 9.7 km/h 24.8 km/h 80 % 0.3 mm
09:18 8.9 °C 5.7 °C 1009.0 hPa West 13.7 km/h 24.8 km/h 80 % 0.3 mm
09:23 8.9 °C 5.7 °C 1009.0 hPa West 14.0 km/h 24.8 km/h 80 % 0.3 mm
09:28 8.9 °C 5.1 °C 1009.0 hPa West 16.3 km/h 27.4 km/h 77 % 0.3 mm
09:33 9.1 °C 5.3 °C 1009.0 hPa West 13.0 km/h 27.4 km/h 77 % 0.3 mm
09:38 9.2 °C 5.2 °C 1010.0 hPa West 13.0 km/h 23.3 km/h 76 % 0.3 mm
09:43 9.2 °C 5.2 °C 1010.0 hPa WSW 10.1 km/h 22.4 km/h 76 % 0.0 mm
09:48 9.0 °C 4.8 °C 1010.0 hPa West 10.1 km/h 27.7 km/h 75 % 0.0 mm
09:53 9.1 °C 4.7 °C 1010.0 hPa WSW 9.7 km/h 27.7 km/h 74 % 0.0 mm
09:58 9.1 °C 4.5 °C 1010.0 hPa West 20.9 km/h 21.2 km/h 73 % 0.0 mm
10:03 9.1 °C 4.3 °C 1010.0 hPa West 8.7 km/h 20.9 km/h 72 % 0.0 mm
10:08 9.0 °C 3.6 °C 1010.0 hPa WSW 9.3 km/h 23.3 km/h 69 % 0.0 mm
10:13 9.1 °C 3.7 °C 1010.0 hPa West 16.6 km/h 23.8 km/h 69 % 0.0 mm
10:18 9.4 °C 4.2 °C 1010.0 hPa WSW 9.3 km/h 23.8 km/h 70 % 0.0 mm
10:23 9.5 °C 4.1 °C 1011.1 hPa West 14.0 km/h 21.6 km/h 69 % 0.0 mm
10:28 9.6 °C 4.2 °C 1011.1 hPa West 9.3 km/h 21.6 km/h 69 % 0.0 mm
10:33 9.4 °C 3.4 °C 1011.1 hPa West 6.1 km/h 20.6 km/h 66 % 0.0 mm
10:38 9.4 °C 3.4 °C 1011.1 hPa WSW 10.5 km/h 20.6 km/h 66 % 0.0 mm
10:43 9.4 °C 2.5 °C 1011.1 hPa West 15.8 km/h 24.8 km/h 62 % 0.0 mm
10:48 9.5 °C 2.3 °C 1011.1 hPa West 14.0 km/h 24.8 km/h 61 % 0.0 mm
10:53 9.4 °C 2.3 °C 1011.1 hPa West 9.3 km/h 24.8 km/h 61 % 0.0 mm
10:58 9.2 °C 2.1 °C 1011.1 hPa West 21.9 km/h 24.8 km/h 61 % 0.0 mm
11:03 9.4 °C 2.7 °C 1011.1 hPa WNW 14.0 km/h 24.8 km/h 63 % 0.0 mm
11:08 9.5 °C 2.1 °C 1011.1 hPa SSW 27.0 km/h 28.5 km/h 60 % 0.0 mm
11:13 9.4 °C 1.3 °C 1011.1 hPa WNW 13.7 km/h 28.5 km/h 57 % 0.0 mm
11:18 9.4 °C 1.1 °C 1011.1 hPa West 12.2 km/h 27.4 km/h 56 % 0.0 mm
11:23 9.5 °C 0.9 °C 1011.1 hPa NNW 12.2 km/h 24.5 km/h 55 % 0.0 mm
11:28 9.6 °C 0.7 °C 1011.1 hPa WNW 16.3 km/h 24.5 km/h 54 % 0.0 mm
11:33 9.6 °C 0.7 °C 1011.1 hPa WNW 14.0 km/h 20.6 km/h 54 % 0.0 mm
11:38 9.7 °C 0.6 °C 1012.1 hPa WNW 14.0 km/h 23.8 km/h 53 % 0.0 mm
11:43 9.7 °C 0.3 °C 1012.1 hPa West 12.2 km/h 24.5 km/h 52 % 0.0 mm
11:48 9.7 °C 0.3 °C 1012.1 hPa WSW 12.2 km/h 24.5 km/h 52 % 0.0 mm
11:53 9.7 °C 0.1 °C 1010.0 hPa West 9.0 km/h 24.8 km/h 51 % 0.0 mm
11:59 9.7 °C -0.5 °C 1010.0 hPa WSW 9.7 km/h 24.8 km/h 49 % 0.0 mm
12:04 9.8 °C -0.4 °C 1010.0 hPa West 17.7 km/h 21.2 km/h 49 % 0.0 mm
12:09 9.6 °C -0.9 °C 1011.1 hPa WSW 12.6 km/h 21.2 km/h 48 % 0.0 mm
12:14 9.7 °C -1.1 °C 1011.1 hPa WNW 10.1 km/h 19.8 km/h 47 % 0.0 mm
12:19 9.8 °C -0.7 °C 1011.1 hPa SW 16.6 km/h 19.8 km/h 48 % 0.0 mm
12:24 9.8 °C -1.0 °C 1011.1 hPa NNW 6.9 km/h 20.6 km/h 47 % 0.0 mm
12:29 9.8 °C -1.0 °C 1011.1 hPa WNW 8.7 km/h 20.6 km/h 47 % 0.0 mm
12:34 9.9 °C -0.9 °C 1011.1 hPa West 12.2 km/h 16.9 km/h 47 % 0.0 mm
12:35 9.9 °C -0.9 °C 1011.1 hPa West 15.4 km/h 16.9 km/h 47 % 0.0 mm
12:40 10.0 °C -0.5 °C 1011.1 hPa WSW 13.0 km/h 20.9 km/h 48 % 0.0 mm
12:45 10.3 °C -0.3 °C 1011.1 hPa North 10.1 km/h 20.9 km/h 48 % 0.0 mm
12:50 10.5 °C -0.1 °C 1011.1 hPa WSW 21.2 km/h 24.5 km/h 48 % 0.0 mm
12:55 10.2 °C -0.3 °C 1011.1 hPa West 17.7 km/h 24.5 km/h 48 % 0.0 mm
13:00 10.4 °C -0.4 °C 1011.1 hPa West 9.7 km/h 24.5 km/h 47 % 0.0 mm
13:01 10.5 °C -0.4 °C 1011.1 hPa WSW 15.8 km/h 24.5 km/h 47 % 0.0 mm
13:06 10.7 °C -0.2 °C 1011.1 hPa WSW 19.1 km/h 25.6 km/h 47 % 0.0 mm
13:12 10.7 °C -0.2 °C 1011.1 hPa West 28.0 km/h 28.0 km/h 47 % 0.0 mm
13:17 10.7 °C -0.5 °C 1011.1 hPa NW 13.0 km/h 28.0 km/h 46 % 0.0 mm
13:22 10.7 °C -0.2 °C 1011.1 hPa SSW 17.2 km/h 23.8 km/h 47 % 0.0 mm
13:27 10.8 °C -0.4 °C 1011.1 hPa WSW 16.3 km/h 23.0 km/h 46 % 0.0 mm
13:32 11.3 °C 0.1 °C 1011.1 hPa WSW 10.5 km/h 23.3 km/h 46 % 0.0 mm
13:37 11.4 °C -0.1 °C 1011.1 hPa West 7.6 km/h 23.3 km/h 45 % 0.0 mm
13:42 11.7 °C 0.4 °C 1011.1 hPa NNW 15.1 km/h 21.9 km/h 46 % 0.0 mm
13:47 11.7 °C 0.4 °C 1011.1 hPa WSW 20.9 km/h 23.8 km/h 46 % 0.0 mm
13:52 11.4 °C -0.4 °C 1011.1 hPa WSW 19.5 km/h 27.0 km/h 44 % 0.0 mm
13:57 11.2 °C -1.3 °C 1011.1 hPa West 22.7 km/h 30.9 km/h 42 % 0.0 mm
14:02 11.0 °C -1.4 °C 1011.1 hPa West 13.7 km/h 30.9 km/h 42 % 0.0 mm
14:07 11.4 °C -0.8 °C 1011.1 hPa West 20.1 km/h 24.5 km/h 43 % 0.0 mm
14:12 11.3 °C -1.2 °C 1011.1 hPa WSW 19.5 km/h 21.2 km/h 42 % 0.0 mm
14:17 11.4 °C -0.7 °C 1011.1 hPa WNW 14.0 km/h 21.2 km/h 43 % 0.0 mm
14:27 11.4 °C -0.4 °C 1011.1 hPa West 19.8 km/h 21.9 km/h 44 % 0.0 mm
14:32 11.0 °C -0.8 °C 1011.1 hPa West 21.2 km/h 32.8 km/h 44 % 0.0 mm
14:33 11.0 °C -0.8 °C 1011.1 hPa West 22.7 km/h 32.8 km/h 44 % 0.0 mm
14:38 11.1 °C -0.4 °C 1011.1 hPa WSW 20.1 km/h 32.8 km/h 45 % 0.0 mm
14:43 11.2 °C -0.1 °C 1011.1 hPa West 20.6 km/h 25.9 km/h 46 % 0.0 mm
14:48 11.1 °C -0.4 °C 1011.1 hPa WSW 13.0 km/h 28.5 km/h 45 % 0.0 mm
14:53 11.0 °C -0.2 °C 1011.1 hPa West 28.0 km/h 28.8 km/h 46 % 0.0 mm
14:58 11.1 °C -0.1 °C 1011.1 hPa West 7.6 km/h 28.8 km/h 46 % 0.0 mm
15:03 11.3 °C 0.3 °C 1011.1 hPa WSW 16.3 km/h 26.7 km/h 47 % 0.0 mm
15:08 11.0 °C 0.1 °C 1011.1 hPa WSW 6.4 km/h 20.9 km/h 47 % 0.0 mm
15:13 11.3 °C 0.3 °C 1011.1 hPa WSW 12.2 km/h 24.8 km/h 47 % 0.0 mm
15:18 11.8 °C 0.8 °C 1011.1 hPa WSW 17.7 km/h 25.9 km/h 47 % 0.0 mm
15:23 11.4 °C 0.4 °C 1011.1 hPa West 14.0 km/h 25.9 km/h 47 % 0.0 mm
15:28 11.8 °C 0.9 °C 1011.1 hPa WSW 16.6 km/h 25.6 km/h 47 % 0.0 mm
15:33 11.8 °C 0.9 °C 1011.1 hPa WSW 17.7 km/h 29.9 km/h 47 % 0.0 mm
15:38 12.1 °C 1.1 °C 1011.1 hPa West 24.8 km/h 29.9 km/h 47 % 0.0 mm
15:43 12.1 °C 0.8 °C 1011.1 hPa West 16.9 km/h 24.8 km/h 46 % 0.0 mm
15:48 12.2 °C 0.9 °C 1011.1 hPa NW 15.8 km/h 24.5 km/h 46 % 0.0 mm
15:53 11.8 °C 0.2 °C 1011.1 hPa West 17.7 km/h 27.0 km/h 45 % 0.0 mm
15:58 11.8 °C 0.2 °C 1011.1 hPa WSW 12.6 km/h 27.0 km/h 45 % 0.0 mm
16:03 11.8 °C 0.5 °C 1011.1 hPa West 25.6 km/h 27.7 km/h 46 % 0.0 mm
16:08 11.8 °C 0.2 °C 1012.1 hPa WSW 20.1 km/h 27.7 km/h 45 % 0.0 mm
16:13 11.8 °C 0.2 °C 1012.1 hPa WNW 24.8 km/h 28.0 km/h 45 % 0.0 mm
16:18 11.6 °C 0.0 °C 1012.1 hPa West 15.8 km/h 28.5 km/h 45 % 0.0 mm
16:23 11.8 °C 0.2 °C 1012.1 hPa WNW 23.3 km/h 28.5 km/h 45 % 0.0 mm
16:28 11.3 °C 0.1 °C 1012.1 hPa WSW 16.9 km/h 24.5 km/h 46 % 0.0 mm
16:33 11.0 °C -0.2 °C 1012.1 hPa WSW 10.5 km/h 24.8 km/h 46 % 0.0 mm
16:38 10.9 °C 0.0 °C 1011.1 hPa WSW 9.0 km/h 24.8 km/h 47 % 0.0 mm
16:43 11.4 °C 0.4 °C 1011.1 hPa WSW 5.8 km/h 22.7 km/h 47 % 0.0 mm
16:48 10.7 °C -0.2 °C 1011.1 hPa West 19.5 km/h 25.9 km/h 47 % 0.0 mm
16:53 11.0 °C 0.1 °C 1011.1 hPa West 19.5 km/h 25.9 km/h 47 % 0.0 mm
16:58 11.1 °C 0.2 °C 1011.1 hPa WSW 16.3 km/h 24.8 km/h 47 % 0.0 mm
17:03 11.1 °C -0.1 °C 1011.1 hPa West 11.6 km/h 24.8 km/h 46 % 0.0 mm
17:08 11.0 °C -0.2 °C 1011.1 hPa WSW 20.9 km/h 23.3 km/h 46 % 0.0 mm
17:13 10.9 °C 0.0 °C 1011.1 hPa West 14.0 km/h 28.5 km/h 47 % 0.0 mm
17:18 10.9 °C -0.3 °C 1011.1 hPa WSW 14.0 km/h 28.5 km/h 46 % 0.0 mm
17:23 10.8 °C -0.1 °C 1011.1 hPa West 21.2 km/h 25.3 km/h 47 % 0.0 mm
17:28 10.7 °C 0.1 °C 1011.1 hPa West 17.2 km/h 24.8 km/h 48 % 0.0 mm
17:33 10.5 °C -0.4 °C 1011.1 hPa WSW 16.6 km/h 26.2 km/h 47 % 0.0 mm
17:38 10.4 °C -0.2 °C 1011.1 hPa West 13.0 km/h 26.2 km/h 48 % 0.0 mm
17:43 10.2 °C -0.3 °C 1011.1 hPa West 13.0 km/h 23.3 km/h 48 % 0.0 mm
17:48 10.1 °C -0.4 °C 1011.1 hPa West 25.6 km/h 25.6 km/h 48 % 0.0 mm
17:53 9.8 °C -1.0 °C 1012.1 hPa West 21.9 km/h 27.4 km/h 47 % 0.0 mm
17:58 9.6 °C -0.9 °C 1012.1 hPa West 19.8 km/h 27.4 km/h 48 % 0.0 mm
18:03 9.4 °C -0.8 °C 1012.1 hPa West 20.6 km/h 26.2 km/h 49 % 0.0 mm
18:08 9.1 °C -0.8 °C 1012.1 hPa WSW 12.2 km/h 24.8 km/h 50 % 0.0 mm
18:13 8.9 °C -0.7 °C 1012.1 hPa WSW 15.8 km/h 24.5 km/h 51 % 0.0 mm
18:18 8.8 °C -0.2 °C 1012.1 hPa WSW 20.9 km/h 23.8 km/h 53 % 0.0 mm
18:23 8.7 °C -0.3 °C 1012.1 hPa WSW 19.8 km/h 27.4 km/h 53 % 0.0 mm
18:28 8.6 °C -0.2 °C 1012.1 hPa WSW 13.7 km/h 27.4 km/h 54 % 0.0 mm
18:34 8.4 °C -0.1 °C 1012.1 hPa West 11.6 km/h 20.6 km/h 55 % 0.0 mm
18:38 8.3 °C 0.1 °C 1012.1 hPa WSW 14.0 km/h 19.5 km/h 56 % 0.0 mm
18:43 8.2 °C 0.2 °C 1012.1 hPa WSW 14.8 km/h 19.5 km/h 57 % 0.0 mm
18:48 8.2 °C 0.4 °C 1012.1 hPa West 16.9 km/h 20.9 km/h 58 % 0.0 mm
18:54 8.1 °C 0.3 °C 1013.1 hPa WSW 20.6 km/h 20.9 km/h 58 % 0.0 mm
18:59 7.9 °C 0.4 °C 1013.1 hPa West 10.5 km/h 20.6 km/h 59 % 0.0 mm
19:04 7.8 °C 0.6 °C 1013.1 hPa West 15.8 km/h 17.7 km/h 60 % 0.0 mm
19:09 7.7 °C 0.7 °C 1013.1 hPa WSW 12.2 km/h 16.3 km/h 61 % 0.0 mm
19:14 7.4 °C 0.4 °C 1013.1 hPa WSW 7.9 km/h 14.0 km/h 61 % 0.0 mm
19:19 7.2 °C 0.3 °C 1013.1 hPa WSW 6.9 km/h 11.6 km/h 62 % 0.0 mm
19:24 6.8 °C 0.3 °C 1013.1 hPa Calm   10.1 km/h 63 % 0.0 mm
19:29 6.7 °C 0.3 °C 1013.1 hPa Calm   9.0 km/h 64 % 0.0 mm
19:34 6.4 °C 0.3 °C 1013.1 hPa WSW 6.1 km/h 9.0 km/h 65 % 0.0 mm
19:44 6.2 °C 0.5 °C 1013.1 hPa Calm   7.9 km/h 67 % 0.0 mm
19:49 6.1 °C 0.4 °C 1013.1 hPa Calm   6.1 km/h 67 % 0.0 mm
19:54 6.1 °C 0.6 °C 1013.1 hPa Calm   6.4 km/h 68 % 0.0 mm
19:59 6.2 °C 0.7 °C 1013.1 hPa SSW 7.9 km/h 9.0 km/h 68 % 0.0 mm
20:04 6.4 °C 1.1 °C 1013.1 hPa SSW 7.2 km/h 9.7 km/h 69 % 0.0 mm
20:09 6.4 °C 1.2 °C 1012.1 hPa SSW 7.9 km/h 9.7 km/h 69 % 0.0 mm
20:14 6.4 °C 1.2 °C 1012.1 hPa SW 7.9 km/h 12.2 km/h 69 % 0.0 mm
20:19 6.6 °C 1.3 °C 1012.1 hPa WSW 10.5 km/h 12.2 km/h 69 % 0.0 mm
20:24 6.6 °C 1.3 °C 1013.1 hPa SW 6.4 km/h 11.9 km/h 69 % 0.0 mm
20:29 6.6 °C 1.3 °C 1013.1 hPa SW 10.5 km/h 11.6 km/h 69 % 0.0 mm
20:34 6.4 °C 1.2 °C 1013.1 hPa SW 7.2 km/h 11.9 km/h 69 % 0.0 mm
20:40 6.4 °C 1.2 °C 1013.1 hPa SSW 6.1 km/h 11.9 km/h 69 % 0.0 mm
20:45 6.4 °C 1.1 °C 1013.1 hPa SSW 6.1 km/h 10.5 km/h 69 % 0.0 mm
20:50 6.2 °C 0.9 °C 1013.1 hPa South 2.6 km/h 9.0 km/h 69 % 0.0 mm
20:55 6.1 °C 0.8 °C 1013.1 hPa South 2.6 km/h 6.4 km/h 69 % 0.0 mm
21:00 5.9 °C 0.6 °C 1013.1 hPa SSW 6.4 km/h 6.4 km/h 69 % 0.0 mm
21:05 5.7 °C 0.6 °C 1013.1 hPa Calm   6.4 km/h 70 % 0.0 mm
21:10 5.6 °C 0.6 °C 1013.1 hPa Calm   6.4 km/h 70 % 0.0 mm
21:15 5.5 °C 0.7 °C 1013.1 hPa SSW 4.3 km/h 6.9 km/h 71 % 0.0 mm
21:17 5.4 °C 0.6 °C 1013.1 hPa Calm   6.9 km/h 71 % 0.0 mm
21:22 5.4 °C 0.6 °C 1013.1 hPa South 5.5 km/h 6.9 km/h 71 % 0.0 mm
21:27 5.4 °C 0.7 °C 1013.1 hPa SSW 6.1 km/h 9.7 km/h 72 % 0.0 mm
21:32 5.4 °C 0.7 °C 1013.1 hPa Calm   9.7 km/h 72 % 0.0 mm
21:37 5.5 °C 1.1 °C 1013.1 hPa SSW 2.6 km/h 9.0 km/h 73 % 0.0 mm
21:42 5.5 °C 1.1 °C 1013.1 hPa SSW 1.8 km/h 10.1 km/h 73 % 0.0 mm
21:47 5.6 °C 1.3 °C 1013.1 hPa Calm   10.1 km/h 74 % 0.0 mm
21:52 5.6 °C 1.3 °C 1013.1 hPa SW 6.1 km/h 10.1 km/h 74 % 0.0 mm
21:57 5.7 °C 1.6 °C 1012.1 hPa SW 5.8 km/h 10.5 km/h 75 % 0.0 mm
22:02 5.7 °C 1.6 °C 1012.1 hPa SSW 7.6 km/h 10.5 km/h 75 % 0.0 mm
22:07 5.6 °C 1.5 °C 1012.1 hPa SW 8.7 km/h 10.1 km/h 75 % 0.0 mm
22:12 5.6 °C 1.5 °C 1012.1 hPa Calm   9.7 km/h 75 % 0.0 mm
22:17 5.5 °C 1.2 °C 1012.1 hPa Calm   9.3 km/h 74 % 0.0 mm
22:22 5.3 °C 1.1 °C 1013.1 hPa SSW 5.8 km/h 8.7 km/h 74 % 0.0 mm
22:27 5.2 °C 0.9 °C 1013.1 hPa South 2.6 km/h 8.7 km/h 74 % 0.0 mm
22:32 5.1 °C 0.8 °C 1013.1 hPa Calm   5.8 km/h 74 % 0.0 mm
22:37 5.1 °C 1.0 °C 1012.1 hPa SSW 4.7 km/h 5.5 km/h 75 % 0.0 mm
22:42 5.0 °C 0.9 °C 1012.1 hPa SSW 6.9 km/h 7.9 km/h 75 % 0.0 mm
22:47 5.0 °C 0.9 °C 1012.1 hPa Calm   7.9 km/h 75 % 0.0 mm
22:52 4.9 °C 0.8 °C 1013.1 hPa Calm   6.9 km/h 75 % 0.0 mm
22:57 4.8 °C 0.9 °C 1013.1 hPa Calm   6.1 km/h 76 % 0.0 mm
23:02 4.7 °C 0.8 °C 1013.1 hPa Calm     76 % 0.0 mm
23:07 4.5 °C 0.7 °C 1013.1 hPa Calm   6.1 km/h 76 % 0.0 mm
23:12 4.3 °C 0.4 °C 1013.1 hPa Calm   6.4 km/h 76 % 0.0 mm
23:17 4.2 °C 0.6 °C 1013.1 hPa Calm   6.4 km/h 77 % 0.0 mm
23:22 4.2 °C 0.6 °C 1013.1 hPa South 6.4 km/h 7.2 km/h 77 % 0.0 mm
23:28 4.0 °C 0.3 °C 1013.1 hPa Calm   7.6 km/h 77 % 0.0 mm
23:33 4.0 °C 0.3 °C 1013.1 hPa SSW 5.0 km/h 7.6 km/h 77 % 0.0 mm
23:38 3.8 °C 0.3 °C 1013.1 hPa Calm   5.0 km/h 78 % 0.0 mm
23:43 3.7 °C 0.2 °C 1013.1 hPa Calm   4.0 km/h 78 % 0.0 mm
23:48 3.6 °C 0.2 °C 1013.1 hPa Calm   4.3 km/h 78 % 0.0 mm
23:53 3.6 °C 0.3 °C 1012.1 hPa Calm   4.7 km/h 79 % 0.0 mm
23:58 3.4 °C 0.1 °C 1012.1 hPa Calm   4.7 km/h 79 % 0.0 mm
Le Gheer Warneton
Courtoisie de Weather Underground - 2.25 mb

Mise a jour : 16-12-17 15:49:11
Généré par Cumulus 1.9.4 (1099)